Whittemore, IA (50598)

6:23 AM CST on December 03, 2016 (GMT -0600)
Algona Municipal | | Change Station

Elev 1220 ft 43.08 °N, 94.27 °W | Updated 8 minutes ago

Overcast
Overcast
32 °F
Feels Like 29 °F
N
4
Wind Variable Wind from North

Today
High -- | Low -- °F
--% Chance of Precip.
Yesterday
High -- | Low -- °F
Precip. -- in
Pressure 30.29 in
Visibility 10.0 miles
Clouds Few 2000 ft
Overcast 2700 ft
Windchill 29 °F
Dew Point 28 °F
Humidity 87%
Rainfall 0.00 in
Snow Depth Not available.
7:32 AM 4:43 PM
Waxing Crescent, 14% visible
METAR KAXA 031215Z AUTO 36003KT 10SM FEW020 OVC027 M00/M02 A3029 RMK AO2
Pressure 30.29 in
Visibility 10.0 miles
Clouds Few 2000 ft
Overcast 2700 ft
Windchill 29 °F
Dew Point 28 °F
Humidity 87%
Rainfall 0.00 in
Snow Depth Not available.
7:32 AM 4:43 PM
Waxing Crescent, 14% visible
METAR KAXA 031215Z AUTO 36003KT 10SM FEW020 OVC027 M00/M02 A3029 RMK AO2

10-Day Weather Forecast

Almanac

Astronomy

Dec. 03, 2016 Rise Set
Actual Time
Civil Twilight
Nautical Twilight
Astronomical Twilight
Moon
Length of Visible Light
Length of Day
Tomorrow will be .
, % of the Moon is Illuminated

Today's Extremes

State Highs State Lows

Community

WunderPhotos

Upload Photos

1,955,429 photos uploaded!

WunderBlog® & News

Nearby

Air Quality

  Air Quality AQ Index Pollutant
Not available.

Snow Depth

Station Depth Elevation

Earthquake Activity

City Distance Mag. Time & Date
Minimum magnitude displayed is 2.5.

Coastal Water Temperatures

Place Temperature

Stations

Nearby Weather Stations

Station Location Temp. Windchill Dew Point Humidity Wind Precip. Elev Updated Type
                   

Watches & Warnings

There are currently no watches in effect.